createdAt,value
2023-02-04T00:01:50.570Z,94.79
2023-02-04T00:04:18.736Z,94.58
2023-02-04T00:06:46.812Z,92.65
2023-02-04T00:09:16.535Z,90.72
2023-02-04T00:11:46.128Z,89.78
2023-02-04T00:14:14.523Z,89.83
2023-02-04T00:16:42.766Z,89.97
2023-02-04T00:19:10.971Z,89.53
2023-02-04T00:21:39.079Z,89.33
2023-02-04T00:24:07.641Z,89.60
2023-02-04T00:26:35.677Z,88.93
2023-02-04T00:29:05.324Z,89.29
2023-02-04T00:31:33.561Z,88.49
2023-02-04T00:34:01.849Z,88.48
2023-02-04T00:36:30.318Z,88.00
2023-02-04T00:38:58.391Z,87.88
2023-02-04T00:41:26.693Z,87.74
2023-02-04T00:43:54.871Z,87.38
2023-02-04T00:46:24.515Z,87.39
2023-02-04T00:48:52.636Z,87.78
2023-02-04T00:51:20.777Z,88.10
2023-02-04T00:53:48.986Z,88.16
2023-02-04T00:56:17.220Z,88.32
2023-02-04T00:58:45.285Z,88.59
2023-02-04T01:01:13.554Z,88.56
2023-02-04T01:03:43.111Z,88.33
2023-02-04T01:06:11.413Z,88.49
2023-02-04T01:08:39.764Z,88.80
2023-02-04T01:11:07.923Z,88.45
2023-02-04T01:13:36.056Z,88.04
2023-02-04T01:16:04.373Z,88.73
2023-02-04T01:18:32.783Z,88.04
2023-02-04T01:21:02.617Z,88.07
2023-02-04T01:23:30.676Z,88.13
2023-02-04T01:25:58.925Z,88.02
2023-02-04T01:28:27.069Z,87.71
2023-02-04T01:30:55.423Z,87.87
2023-02-04T01:33:24.111Z,88.03
2023-02-04T01:35:52.143Z,87.40
2023-02-04T01:38:21.570Z,87.03
2023-02-04T01:40:49.772Z,87.09
2023-02-04T01:43:18.525Z,86.71
2023-02-04T01:45:47.101Z,86.47
2023-02-04T01:48:20.439Z,85.87
2023-02-04T01:50:51.074Z,85.66
2023-02-04T01:53:23.908Z,85.74
2023-02-04T01:55:51.881Z,85.65
2023-02-04T01:58:20.548Z,84.42
2023-02-04T02:00:48.658Z,83.10
2023-02-04T02:03:16.758Z,83.58
2023-02-04T02:05:50.598Z,83.42
2023-02-04T02:08:19.082Z,84.23
2023-02-04T02:10:50.177Z,84.50
2023-02-04T02:13:20.098Z,84.68
2023-02-04T02:15:48.877Z,85.29
2023-02-04T02:18:17.349Z,85.43
2023-02-04T02:20:46.104Z,86.33
2023-02-04T02:23:22.125Z,88.07
2023-02-04T02:25:52.285Z,90.18
2023-02-04T02:28:22.515Z,91.31
2023-02-04T02:30:51.711Z,93.07
2023-02-04T02:33:22.110Z,94.27
2023-02-04T02:35:50.671Z,94.76
2023-02-04T02:38:20.143Z,95.21
2023-02-04T02:40:51.176Z,95.60
2023-02-04T02:43:24.083Z,95.74
2023-02-04T02:45:52.313Z,96.68
2023-02-04T02:48:20.340Z,96.90
2023-02-04T02:50:49.417Z,96.79
2023-02-04T02:53:20.430Z,96.83
2023-02-04T02:55:49.568Z,96.91
2023-02-04T02:58:22.751Z,96.07
2023-02-04T03:00:50.799Z,95.78
2023-02-04T03:03:24.651Z,95.69
2023-02-04T03:05:57.008Z,95.78
2023-02-04T03:08:24.933Z,96.58
2023-02-04T03:10:53.016Z,96.79
2023-02-04T03:13:22.826Z,96.84
2023-02-04T03:15:51.761Z,96.92
2023-02-04T03:18:21.788Z,96.98
2023-02-04T03:20:51.736Z,97.26
2023-02-04T03:23:21.049Z,97.00
2023-02-04T03:25:48.938Z,96.91
2023-02-04T03:28:16.915Z,96.98
2023-02-04T03:30:53.762Z,96.55
2023-02-04T03:33:21.683Z,96.63
2023-02-04T03:35:49.597Z,97.03
2023-02-04T03:38:19.634Z,97.28
2023-02-04T03:40:48.046Z,96.67
2023-02-04T03:43:15.855Z,96.75
2023-02-04T03:45:45.730Z,96.79
2023-02-04T03:48:15.138Z,96.26
2023-02-04T03:50:43.118Z,96.15
2023-02-04T03:53:11.480Z,96.49
2023-02-04T03:55:39.307Z,96.50
2023-02-04T03:58:07.213Z,96.46
2023-02-04T04:00:34.994Z,96.46
2023-02-04T04:03:02.941Z,96.82
2023-02-04T04:05:32.598Z,96.61
2023-02-04T04:08:00.362Z,96.76
2023-02-04T04:10:29.421Z,96.77
2023-02-04T04:12:57.491Z,96.46
2023-02-04T04:15:25.696Z,96.64
2023-02-04T04:17:53.530Z,96.15
2023-02-04T04:20:25.432Z,95.97
2023-02-04T04:22:54.593Z,95.28
2023-02-04T04:25:22.404Z,95.61
2023-02-04T04:27:50.254Z,95.95
2023-02-04T04:30:18.693Z,96.20
2023-02-04T04:32:46.416Z,95.69
2023-02-04T04:35:14.218Z,96.26
2023-02-04T04:37:41.991Z,96.55
2023-02-04T04:40:13.622Z,96.85
2023-02-04T04:42:41.458Z,96.58
2023-02-04T04:45:10.243Z,96.20
2023-02-04T04:47:37.998Z,96.33
2023-02-04T04:50:06.300Z,95.75
2023-02-04T04:52:34.180Z,95.84
2023-02-04T04:55:01.986Z,95.54
2023-02-04T04:57:31.229Z,95.70
2023-02-04T04:59:59.081Z,95.00
2023-02-04T05:02:26.933Z,94.57
2023-02-04T05:04:55.214Z,94.05
2023-02-04T05:07:23.177Z,94.13
2023-02-04T05:09:50.967Z,94.04
2023-02-04T05:12:18.856Z,94.34
2023-02-04T05:14:48.014Z,94.04
2023-02-04T05:17:15.919Z,94.19
2023-02-04T05:19:43.698Z,93.55
2023-02-04T05:22:11.568Z,93.76
2023-02-04T05:24:39.365Z,93.30
2023-02-04T05:27:07.142Z,93.17
2023-02-04T05:29:34.944Z,92.88
2023-02-04T05:32:04.307Z,92.48
2023-02-04T05:34:32.250Z,92.62
2023-02-04T05:36:59.943Z,92.07
2023-02-04T05:39:27.735Z,92.43
2023-02-04T05:41:55.453Z,92.43
2023-02-04T05:44:23.249Z,92.06
2023-02-04T05:46:51.079Z,92.30
2023-02-04T05:49:20.274Z,92.24
2023-02-04T05:51:47.968Z,92.12
2023-02-04T05:54:19.496Z,92.34
2023-02-04T05:56:47.630Z,92.45
2023-02-04T05:59:15.456Z,92.10
2023-02-04T06:01:43.315Z,91.86
2023-02-04T06:04:11.110Z,91.75
2023-02-04T06:06:40.269Z,92.34
2023-02-04T06:09:07.994Z,91.77
2023-02-04T06:11:35.707Z,91.64
2023-02-04T06:14:03.499Z,91.72
2023-02-04T06:16:31.298Z,92.33
2023-02-04T06:18:59.019Z,92.12
2023-02-04T06:21:26.732Z,92.49
2023-02-04T06:23:55.801Z,92.79
2023-02-04T06:26:23.784Z,92.41
2023-02-04T06:28:51.510Z,92.49
2023-02-04T06:31:19.307Z,92.62
2023-02-04T06:33:47.045Z,92.69
2023-02-04T06:36:14.725Z,92.87
2023-02-04T06:38:42.754Z,93.03
2023-02-04T06:41:11.983Z,93.29
2023-02-04T06:43:39.722Z,92.86
2023-02-04T06:46:07.538Z,92.77
2023-02-04T06:48:35.379Z,92.92
2023-02-04T06:51:03.161Z,92.71
2023-02-04T06:53:30.880Z,92.79
2023-02-04T06:55:58.584Z,92.70
2023-02-04T06:58:27.728Z,92.77
2023-02-04T07:00:55.465Z,92.90
2023-02-04T07:03:23.220Z,92.71
2023-02-04T07:05:51.192Z,92.80
2023-02-04T07:08:18.891Z,93.07
2023-02-04T07:10:46.614Z,93.37
2023-02-04T07:13:14.403Z,93.20
2023-02-04T07:15:43.510Z,93.32
2023-02-04T07:18:11.319Z,93.43
2023-02-04T07:20:39.020Z,93.58
2023-02-04T07:23:06.783Z,93.69
2023-02-04T07:25:34.516Z,93.65
2023-02-04T07:28:05.202Z,93.63
2023-02-04T07:30:33.753Z,93.75
2023-02-04T07:33:03.230Z,93.93
2023-02-04T07:35:31.074Z,94.61
2023-02-04T07:37:58.778Z,94.66
2023-02-04T07:40:26.479Z,94.51
2023-02-04T07:42:54.386Z,94.65
2023-02-04T07:45:22.107Z,94.90
2023-02-04T07:47:49.938Z,95.07
2023-02-04T07:50:19.382Z,95.27
2023-02-04T07:52:47.077Z,94.59
2023-02-04T07:55:14.852Z,94.71
2023-02-04T07:57:42.640Z,94.55
2023-02-04T08:00:14.187Z,94.73
2023-02-04T08:02:42.331Z,95.10
2023-02-04T08:05:10.931Z,94.97
2023-02-04T08:07:40.321Z,95.34
2023-02-04T08:10:09.546Z,95.13
2023-02-04T08:12:37.579Z,94.65
2023-02-04T08:15:06.782Z,95.04
2023-02-04T08:17:34.493Z,94.88
2023-02-04T08:20:02.268Z,94.63
2023-02-04T08:22:30.041Z,94.54
2023-02-04T08:24:59.158Z,94.07
2023-02-04T08:27:26.878Z,94.16
2023-02-04T08:29:55.304Z,93.23
2023-02-04T08:32:23.093Z,92.67
2023-02-04T08:34:50.849Z,92.89
2023-02-04T08:37:18.589Z,92.93
2023-02-04T08:39:47.389Z,92.46
2023-02-04T08:42:16.678Z,92.03
2023-02-04T08:44:44.590Z,91.70
2023-02-04T08:47:12.426Z,91.53
2023-02-04T08:49:40.274Z,90.95
2023-02-04T08:52:08.589Z,90.48
2023-02-04T08:54:36.907Z,90.65
2023-02-04T08:57:04.868Z,90.53
2023-02-04T08:59:34.055Z,90.86
2023-02-04T09:02:03.081Z,89.88
2023-02-04T09:04:31.641Z,89.85
2023-02-04T09:06:59.360Z,89.86
2023-02-04T09:09:27.226Z,89.41
2023-02-04T09:11:54.954Z,88.66
2023-02-04T09:14:22.675Z,87.91
2023-02-04T09:16:51.768Z,87.97
2023-02-04T09:19:25.231Z,87.79
2023-02-04T09:21:53.651Z,87.17
2023-02-04T09:24:23.502Z,86.96
2023-02-04T09:26:51.993Z,86.26
2023-02-04T09:29:19.904Z,86.00
2023-02-04T09:31:47.713Z,86.03
2023-02-04T09:34:16.970Z,86.06
2023-02-04T09:36:44.788Z,84.95
2023-02-04T09:39:12.737Z,84.05
2023-02-04T09:41:41.579Z,83.25
2023-02-04T09:44:14.417Z,82.58
2023-02-04T09:46:46.277Z,82.01
2023-02-04T09:49:14.051Z,82.04
2023-02-04T09:51:44.915Z,80.61
2023-02-04T09:54:14.868Z,79.70
2023-02-04T09:56:42.940Z,79.50
2023-02-04T09:59:13.406Z,79.81
2023-02-04T10:01:41.561Z,78.64
2023-02-04T10:04:12.748Z,76.45
2023-02-04T10:06:41.933Z,75.93
2023-02-04T10:09:12.682Z,75.67
2023-02-04T10:11:42.773Z,75.14
2023-02-04T10:14:15.857Z,75.31
2023-02-04T10:16:45.136Z,74.37
2023-02-04T10:19:15.881Z,74.09
2023-02-04T10:21:45.704Z,73.96
2023-02-04T10:24:17.503Z,72.54
2023-02-04T10:26:45.602Z,73.54
2023-02-04T10:29:19.066Z,71.07
2023-02-04T10:31:49.104Z,71.53
2023-02-04T10:34:19.240Z,70.50
2023-02-04T10:36:48.575Z,72.44
2023-02-04T10:39:19.752Z,72.49
2023-02-04T10:41:50.097Z,71.62
2023-02-04T10:44:19.693Z,70.70
2023-02-04T10:46:48.354Z,70.68
2023-02-04T10:49:22.043Z,69.19
2023-02-04T10:51:52.664Z,69.50
2023-02-04T10:54:41.290Z,69.13
2023-02-04T10:57:18.919Z,67.58
2023-02-04T10:59:51.008Z,67.45
2023-02-04T11:02:40.608Z,67.56
2023-02-04T11:05:14.176Z,67.88
2023-02-04T11:07:42.276Z,67.67
2023-02-04T11:10:16.342Z,67.35
2023-02-04T11:12:46.475Z,67.27
2023-02-04T11:15:40.633Z,66.40
2023-02-04T11:18:11.963Z,67.10
2023-02-04T11:20:40.866Z,66.21
2023-02-04T11:23:32.317Z,66.26
2023-02-04T11:26:07.671Z,66.04
2023-02-04T11:29:10.337Z,64.94
2023-02-04T11:31:46.532Z,65.01
2023-02-04T11:34:29.026Z,64.72
2023-02-04T11:37:12.604Z,63.26
2023-02-04T11:39:43.455Z,63.37
2023-02-04T11:42:24.958Z,63.36
2023-02-04T11:44:54.398Z,62.85
2023-02-04T11:47:26.496Z,62.02
2023-02-04T11:49:57.860Z,61.35
2023-02-04T11:52:25.833Z,61.27
2023-02-04T11:54:57.775Z,59.70
2023-02-04T11:57:27.518Z,59.56
2023-02-04T11:59:55.493Z,58.19
2023-02-04T12:02:26.043Z,56.98
2023-02-04T12:04:59.251Z,54.23
2023-02-04T12:07:28.995Z,55.82
2023-02-04T12:09:57.472Z,55.96
2023-02-04T12:12:29.822Z,55.08
2023-02-04T12:14:59.187Z,56.31
2023-02-04T12:17:27.062Z,55.96
2023-02-04T12:19:54.855Z,56.87
2023-02-04T12:22:22.749Z,57.35
2023-02-04T12:24:52.385Z,58.17
2023-02-04T12:27:20.376Z,58.43
2023-02-04T12:29:49.550Z,57.57
2023-02-04T12:32:17.354Z,56.78
2023-02-04T12:34:45.154Z,55.86
2023-02-04T12:37:12.999Z,54.27
2023-02-04T12:39:40.794Z,54.24
2023-02-04T12:42:08.536Z,53.94
2023-02-04T12:44:36.524Z,55.12
2023-02-04T12:47:06.267Z,54.73
2023-02-04T12:49:34.044Z,53.43
2023-02-04T12:52:02.266Z,53.68
2023-02-04T12:54:30.034Z,54.27
2023-02-04T12:56:59.171Z,54.90
2023-02-04T12:59:27.444Z,55.35
2023-02-04T13:01:55.290Z,56.05
2023-02-04T13:04:24.905Z,56.80
2023-02-04T13:06:52.656Z,56.88
2023-02-04T13:09:20.491Z,57.23
2023-02-04T13:11:48.315Z,57.82
2023-02-04T13:14:16.113Z,58.54
2023-02-04T13:16:43.903Z,58.77
2023-02-04T13:19:11.770Z,58.78
2023-02-04T13:21:40.983Z,57.32
2023-02-04T13:24:08.961Z,55.92
2023-02-04T13:26:37.214Z,55.32
2023-02-04T13:29:05.074Z,54.54
2023-02-04T13:31:32.808Z,54.24
2023-02-04T13:34:00.617Z,53.24
2023-02-04T13:36:30.334Z,53.04
2023-02-04T13:39:00.201Z,53.24
2023-02-04T13:41:28.103Z,53.34
2023-02-04T13:43:56.195Z,53.07
2023-02-04T13:46:24.226Z,52.86
2023-02-04T13:48:51.993Z,52.09
2023-02-04T13:51:19.808Z,52.03
2023-02-04T13:53:47.546Z,51.53
2023-02-04T13:56:16.806Z,51.28
2023-02-04T13:58:45.552Z,51.48
2023-02-04T14:01:13.386Z,50.77
2023-02-04T14:03:42.851Z,50.89
2023-02-04T14:06:11.211Z,50.68
2023-02-04T14:08:39.016Z,50.66
2023-02-04T14:11:07.327Z,50.77
2023-02-04T14:13:36.441Z,50.88
2023-02-04T14:16:05.337Z,51.19
2023-02-04T14:18:33.096Z,51.88
2023-02-04T14:21:00.857Z,51.91
2023-02-04T14:23:28.634Z,51.70
2023-02-04T14:25:56.301Z,51.70
2023-02-04T14:28:24.093Z,53.26
2023-02-04T14:30:54.710Z,54.41
2023-02-04T14:33:22.641Z,54.49
2023-02-04T14:35:50.420Z,55.49
2023-02-04T14:38:18.592Z,55.66
2023-02-04T14:40:46.756Z,55.89
2023-02-04T14:43:14.691Z,56.79
2023-02-04T14:45:42.514Z,55.94
2023-02-04T14:48:11.621Z,57.00
2023-02-04T14:50:39.400Z,56.90
2023-02-04T14:53:07.171Z,57.40
2023-02-04T14:55:34.974Z,57.97
2023-02-04T14:58:02.754Z,58.41
2023-02-04T15:00:30.754Z,58.22
2023-02-04T15:02:58.584Z,57.85
2023-02-04T15:05:27.793Z,57.80
2023-02-04T15:07:55.656Z,58.10
2023-02-04T15:10:24.859Z,58.39
2023-02-04T15:12:55.277Z,58.30
2023-02-04T15:15:23.309Z,58.59
2023-02-04T15:17:51.089Z,58.42
2023-02-04T15:20:19.024Z,58.14
2023-02-04T15:22:51.785Z,59.22
2023-02-04T15:25:19.938Z,59.10
2023-02-04T15:27:47.784Z,58.80
2023-02-04T15:30:15.770Z,58.83
2023-02-04T15:32:45.893Z,58.72
2023-02-04T15:35:14.520Z,58.45
2023-02-04T15:37:42.272Z,58.69
2023-02-04T15:40:13.179Z,58.52
2023-02-04T15:42:40.982Z,59.02
2023-02-04T15:45:09.219Z,60.25
2023-02-04T15:47:37.362Z,61.06
2023-02-04T15:50:08.672Z,60.90
2023-02-04T15:52:36.386Z,61.86
2023-02-04T15:55:04.356Z,62.17
2023-02-04T15:57:33.457Z,62.71
2023-02-04T16:00:01.222Z,62.92
2023-02-04T16:02:29.075Z,63.35
2023-02-04T16:04:56.911Z,63.77
2023-02-04T16:07:24.702Z,63.99
2023-02-04T16:09:52.509Z,64.41
2023-02-04T16:12:20.406Z,65.41
2023-02-04T16:14:49.486Z,65.77
2023-02-04T16:17:19.002Z,66.37
2023-02-04T16:19:46.870Z,66.69
2023-02-04T16:22:14.780Z,66.72
2023-02-04T16:24:43.473Z,66.26
2023-02-04T16:27:11.264Z,66.78
2023-02-04T16:29:38.995Z,66.99
2023-02-04T16:32:08.201Z,66.51
2023-02-04T16:34:35.929Z,66.74
2023-02-04T16:37:03.644Z,67.76
2023-02-04T16:39:31.479Z,67.61
2023-02-04T16:41:59.154Z,68.05
2023-02-04T16:44:27.020Z,69.07
2023-02-04T16:46:55.026Z,70.20
2023-02-04T16:49:24.460Z,70.25
2023-02-04T16:51:52.208Z,70.90
2023-02-04T16:54:19.949Z,71.09
2023-02-04T16:56:47.807Z,71.15
2023-02-04T16:59:15.677Z,70.73
2023-02-04T17:01:43.484Z,71.14
2023-02-04T17:04:11.295Z,71.86
2023-02-04T17:06:40.759Z,72.29
2023-02-04T17:09:09.262Z,72.33
2023-02-04T17:11:37.473Z,72.73
2023-02-04T17:14:08.663Z,73.14
2023-02-04T17:16:37.312Z,72.63
2023-02-04T17:19:05.528Z,72.57
2023-02-04T17:21:33.425Z,72.98
2023-02-04T17:24:04.791Z,72.34
2023-02-04T17:26:37.214Z,71.91
2023-02-04T17:29:05.897Z,72.02
2023-02-04T17:31:33.909Z,72.10
2023-02-04T17:34:03.148Z,71.93
2023-02-04T17:36:31.326Z,72.26
2023-02-04T17:38:59.523Z,72.59
2023-02-04T17:41:28.710Z,72.50
2023-02-04T17:43:56.463Z,72.76
2023-02-04T17:46:24.469Z,73.30
2023-02-04T17:48:52.324Z,74.33
2023-02-04T17:51:20.056Z,75.80
2023-02-04T17:53:47.892Z,76.58
2023-02-04T17:56:16.069Z,77.22
2023-02-04T17:58:45.875Z,77.50
2023-02-04T18:01:15.802Z,77.36
2023-02-04T18:03:44.068Z,77.45
2023-02-04T18:06:20.348Z,77.30
2023-02-04T18:08:48.367Z,77.78
2023-02-04T18:11:19.637Z,77.51
2023-02-04T18:13:49.547Z,76.89
2023-02-04T18:16:25.316Z,77.04
2023-02-04T18:18:55.426Z,77.82
2023-02-04T18:21:25.886Z,78.32
2023-02-04T18:24:03.761Z,78.21
2023-02-04T18:26:33.860Z,78.51
2023-02-04T18:29:18.965Z,78.59
2023-02-04T18:31:53.123Z,78.72
2023-02-04T18:34:28.660Z,78.76
2023-02-04T18:36:56.533Z,79.67
2023-02-04T18:39:28.778Z,80.01
2023-02-04T18:41:57.250Z,80.35
2023-02-04T18:44:32.634Z,80.53
2023-02-04T18:47:10.500Z,80.53
2023-02-04T18:49:43.904Z,80.54
2023-02-04T18:52:18.759Z,80.24
2023-02-04T18:54:50.976Z,81.02
2023-02-04T18:57:30.736Z,80.83
2023-02-04T19:00:25.424Z,80.98
2023-02-04T19:02:55.820Z,81.13
2023-02-04T19:05:34.224Z,81.20
2023-02-04T19:08:25.656Z,80.74
2023-02-04T19:10:55.754Z,80.41
2023-02-04T19:13:26.811Z,80.11
2023-02-04T19:16:05.463Z,79.96
2023-02-04T19:18:38.527Z,79.82
2023-02-04T19:21:22.803Z,79.86
2023-02-04T19:23:52.114Z,79.78
2023-02-04T19:26:29.919Z,79.68
2023-02-04T19:28:58.008Z,79.33
2023-02-04T19:31:33.726Z,79.23
2023-02-04T19:34:18.137Z,78.12
2023-02-04T19:36:46.090Z,77.33
2023-02-04T19:39:29.744Z,77.06
2023-02-04T19:41:58.159Z,76.55
2023-02-04T19:44:41.184Z,76.80
2023-02-04T19:47:25.370Z,77.29
2023-02-04T19:49:56.304Z,77.32
2023-02-04T19:52:34.794Z,78.11
2023-02-04T19:55:25.971Z,78.44
2023-02-04T19:57:55.498Z,78.71
2023-02-04T20:00:38.307Z,79.46
2023-02-04T20:03:27.737Z,79.92
2023-02-04T20:05:59.694Z,80.07
2023-02-04T20:08:47.878Z,80.24
2023-02-04T20:11:41.569Z,80.11
2023-02-04T20:14:36.701Z,79.91
2023-02-04T20:17:14.283Z,80.24
2023-02-04T20:19:43.588Z,80.41
2023-02-04T20:22:37.392Z,80.99
2023-02-04T20:25:35.403Z,81.52
2023-02-04T20:28:21.999Z,82.25
2023-02-04T20:30:51.625Z,82.56
2023-02-04T20:33:29.158Z,83.03
2023-02-04T20:36:26.758Z,83.22
2023-02-04T20:39:03.199Z,83.40
2023-02-04T20:41:36.811Z,83.76
2023-02-04T20:44:13.881Z,83.78
2023-02-04T20:46:41.650Z,83.94
2023-02-04T20:49:23.964Z,84.48
2023-02-04T20:51:52.831Z,84.45
2023-02-04T20:54:21.960Z,84.37
2023-02-04T20:56:49.878Z,84.47
2023-02-04T20:59:28.379Z,84.62
2023-02-04T21:01:56.250Z,84.51
2023-02-04T21:04:27.565Z,84.45
2023-02-04T21:06:56.718Z,84.29
2023-02-04T21:09:28.950Z,84.35
2023-02-04T21:11:58.028Z,84.21
2023-02-04T21:14:27.352Z,84.09
2023-02-04T21:16:55.887Z,84.25
2023-02-04T21:19:25.030Z,84.13
2023-02-04T21:21:53.148Z,84.03
2023-02-04T21:24:20.937Z,83.54
2023-02-04T21:26:50.100Z,83.24
2023-02-04T21:29:18.434Z,83.22
2023-02-04T21:31:46.738Z,83.27
2023-02-04T21:34:15.820Z,83.47
2023-02-04T21:36:43.713Z,83.83
2023-02-04T21:39:11.571Z,84.00
2023-02-04T21:41:39.376Z,84.02
2023-02-04T21:44:08.574Z,83.74
2023-02-04T21:46:36.410Z,83.96
2023-02-04T21:49:05.303Z,83.73
2023-02-04T21:51:33.089Z,83.90
2023-02-04T21:54:04.390Z,83.86
2023-02-04T21:56:32.170Z,83.84
2023-02-04T21:58:59.924Z,83.85
2023-02-04T22:01:29.112Z,84.04
2023-02-04T22:03:56.863Z,83.93
2023-02-04T22:06:24.786Z,84.13
2023-02-04T22:08:52.527Z,84.37
2023-02-04T22:11:20.307Z,84.21
2023-02-04T22:14:06.578Z,84.38
2023-02-04T22:16:35.857Z,84.52
2023-02-04T22:19:03.726Z,84.74
2023-02-04T22:21:31.464Z,85.20
2023-02-04T22:23:59.200Z,85.54
2023-02-04T22:26:26.989Z,85.89
2023-02-04T22:28:54.759Z,86.10
2023-02-04T22:31:22.573Z,86.51
2023-02-04T22:33:51.756Z,86.76
2023-02-04T22:36:19.562Z,86.75
2023-02-04T22:38:47.412Z,86.83
2023-02-04T22:41:15.556Z,87.23
2023-02-04T22:43:43.478Z,87.43
2023-02-04T22:46:11.738Z,87.44
2023-02-04T22:48:39.525Z,87.40
2023-02-04T22:51:08.605Z,87.79
2023-02-04T22:53:36.408Z,87.77
2023-02-04T22:56:04.237Z,88.23
2023-02-04T22:58:32.075Z,88.52
2023-02-04T23:00:59.999Z,88.61
2023-02-04T23:03:27.882Z,88.51
2023-02-04T23:05:55.611Z,88.76
2023-02-04T23:08:24.899Z,88.70
2023-02-04T23:10:52.747Z,89.02
2023-02-04T23:13:20.632Z,89.45
2023-02-04T23:15:48.507Z,89.73
2023-02-04T23:18:16.313Z,90.20
2023-02-04T23:20:44.234Z,90.37
2023-02-04T23:23:17.411Z,90.25
2023-02-04T23:25:46.920Z,90.41
2023-02-04T23:28:15.373Z,90.49
2023-02-04T23:30:43.550Z,90.89
2023-02-04T23:33:11.536Z,90.90
2023-02-04T23:35:39.390Z,90.67
2023-02-04T23:38:07.104Z,90.64
2023-02-04T23:40:35.007Z,90.77
2023-02-04T23:43:04.199Z,90.84
2023-02-04T23:45:32.503Z,91.02
2023-02-04T23:48:00.629Z,91.14
2023-02-04T23:50:28.538Z,91.13
2023-02-04T23:52:56.364Z,91.55
2023-02-04T23:55:24.248Z,91.97
2023-02-04T23:57:52.063Z,91.88
